Time;durP1;ratioP1;P1;durP2;ratioP2;P2;SDS_P1;SDS_P2;PMS_P1;PMS_P2;Temp;Humidity;BMP_temperature;BMP_pressure;BME280_temperature;BME280_humidity;BME280_pressure;Samples;Min_cycle;Max_cycle;Signal;HPM_P1;HPM_P2
2023/12/21 00:01:21;;;;;;;;;;;19.90;67.60;;;;;;7316310;19;9542;-65
2023/12/21 00:03:50;;;;;;;;;;;19.80;67.60;;;;;;7314819;19;9633;-65
2023/12/21 00:06:19;;;;;;;;;;;19.80;67.70;;;;;;7315855;19;9463;-64
2023/12/21 00:08:51;;;;;;;;;;;19.80;67.70;;;;;;7315437;19;9523;-65
2023/12/21 00:11:20;;;;;;;;;;;19.80;67.80;;;;;;7315612;19;9660;-65
2023/12/21 00:13:52;;;;;;;;;;;19.70;67.80;;;;;;7314493;19;9340;-64
2023/12/21 00:16:21;;;;;;;;;;;19.70;67.80;;;;;;7314589;19;9426;-65
2023/12/21 00:18:50;;;;;;;;;;;19.60;67.90;;;;;;7317190;19;9191;-65
2023/12/21 00:21:19;;;;;;;;;;;19.60;67.90;;;;;;7312615;19;9299;-64
2023/12/21 00:23:51;;;;;;;;;;;19.60;68.00;;;;;;7316814;19;9546;-64
2023/12/21 00:26:20;;;;;;;;;;;19.60;68.00;;;;;;7313603;19;11876;-65
2023/12/21 00:28:49;;;;;;;;;;;19.50;68.10;;;;;;7309666;19;9257;-65
2023/12/21 00:31:18;;;;;;;;;;;19.50;68.10;;;;;;7313720;19;9344;-65
2023/12/21 00:33:47;;;;;;;;;;;19.40;68.10;;;;;;7314562;19;10636;-64
2023/12/21 00:36:18;;;;;;;;;;;19.40;68.10;;;;;;7316408;19;9530;-65
2023/12/21 00:38:47;;;;;;;;;;;19.40;68.10;;;;;;7313440;19;9115;-64
2023/12/21 00:41:19;;;;;;;;;;;19.40;68.60;;;;;;7315351;19;9360;-64
2023/12/21 00:43:48;;;;;;;;;;;19.30;68.20;;;;;;7310864;19;9469;-64
2023/12/21 00:46:17;;;;;;;;;;;19.30;68.30;;;;;;7314540;19;9273;-64
2023/12/21 00:48:46;;;;;;;;;;;19.30;68.30;;;;;;7315731;19;9475;-64
2023/12/21 00:51:15;;;;;;;;;;;19.30;68.30;;;;;;7314855;19;9514;-65
2023/12/21 00:53:44;;;;;;;;;;;19.30;68.30;;;;;;7314901;19;9198;-65
2023/12/21 00:56:13;;;;;;;;;;;19.30;68.30;;;;;;7313729;19;9577;-65
2023/12/21 00:58:45;;;;;;;;;;;19.40;68.30;;;;;;7316595;19;9314;-64
2023/12/21 01:01:14;;;;;;;;;;;19.40;68.20;;;;;;7311229;19;9467;-65
2023/12/21 01:03:43;;;;;;;;;;;19.50;68.10;;;;;;7314763;19;9550;-65
2023/12/21 01:06:12;;;;;;;;;;;19.50;68.00;;;;;;7310780;19;9502;-65
2023/12/21 01:08:41;;;;;;;;;;;19.60;67.90;;;;;;7310539;19;9134;-64
2023/12/21 01:11:10;;;;;;;;;;;19.60;67.80;;;;;;7313350;19;9237;-64
2023/12/21 01:13:40;;;;;;;;;;;19.60;67.70;;;;;;7312401;19;9456;-65
2023/12/21 01:16:13;;;;;;;;;;;19.70;67.90;;;;;;7314717;19;9501;-65
2023/12/21 01:18:42;;;;;;;;;;;19.80;67.60;;;;;;7314512;19;9328;-65
2023/12/21 01:21:11;;;;;;;;;;;19.80;67.60;;;;;;7315110;19;9519;-64
2023/12/21 01:24:00;;;;;;;;;;;19.90;67.50;;;;;;7310695;19;9276;-65
2023/12/21 01:26:49;;;;;;;;;;;19.90;67.40;;;;;;7312322;19;9686;-65
2023/12/21 01:29:18;;;;;;;;;;;20.00;67.30;;;;;;7312220;19;9604;-65
2023/12/21 01:31:50;;;;;;;;;;;20.00;67.30;;;;;;7310742;19;9214;-65
2023/12/21 01:34:19;;;;;;;;;;;20.10;67.20;;;;;;7313264;19;9348;-64
2023/12/21 01:36:48;;;;;;;;;;;20.10;67.20;;;;;;7313362;19;9780;-65
2023/12/21 01:39:17;;;;;;;;;;;20.10;67.10;;;;;;7313904;19;9524;-65
2023/12/21 01:41:46;;;;;;;;;;;20.10;67.10;;;;;;7311525;19;9702;-65
2023/12/21 01:44:18;;;;;;;;;;;20.10;67.00;;;;;;7309973;19;9497;-64
2023/12/21 01:46:50;;;;;;;;;;;20.10;67.00;;;;;;7314014;19;9595;-65
2023/12/21 01:49:21;;;;;;;;;;;20.10;67.00;;;;;;7313208;19;9585;-65
2023/12/21 01:51:52;;;;;;;;;;;20.10;67.00;;;;;;7314053;19;10984;-64
2023/12/21 01:54:22;;;;;;;;;;;20.10;67.00;;;;;;7313995;19;9495;-65
2023/12/21 01:56:51;;;;;;;;;;;20.00;66.90;;;;;;7311601;19;9241;-65
2023/12/21 01:59:21;;;;;;;;;;;20.00;66.90;;;;;;7314214;19;9643;-65
2023/12/21 02:01:52;;;;;;;;;;;20.00;66.90;;;;;;7309207;19;9311;-65
2023/12/21 02:04:42;;;;;;;;;;;20.00;67.00;;;;;;7311527;19;9255;-65
2023/12/21 02:07:11;;;;;;;;;;;20.00;67.10;;;;;;7311337;19;9193;-65
2023/12/21 02:09:40;;;;;;;;;;;19.90;67.00;;;;;;7311438;19;9526;-65
2023/12/21 02:12:09;;;;;;;;;;;19.80;67.10;;;;;;7311911;19;9591;-65
2023/12/21 02:14:39;;;;;;;;;;;19.80;67.10;;;;;;7313224;19;9258;-64
2023/12/21 02:17:33;;;;;;;;;;;19.80;67.20;;;;;;7313440;19;10462;-65
2023/12/21 02:20:04;;;;;;;;;;;19.70;67.20;;;;;;7317955;19;9505;-65
2023/12/21 02:22:37;;;;;;;;;;;19.70;67.30;;;;;;7318100;19;9241;-65
2023/12/21 02:25:11;;;;;;;;;;;19.70;67.40;;;;;;7319429;19;9237;-64
2023/12/21 02:27:40;;;;;;;;;;;19.60;67.30;;;;;;7318252;19;9277;-65
2023/12/21 02:30:10;;;;;;;;;;;19.60;67.40;;;;;;7320527;19;9337;-65
2023/12/21 02:32:41;;;;;;;;;;;19.60;67.50;;;;;;7320286;19;10161;-65
2023/12/21 02:35:15;;;;;;;;;;;19.50;67.50;;;;;;7318890;19;9404;-65
2023/12/21 02:37:44;;;;;;;;;;;19.50;67.50;;;;;;7318173;19;9225;-64
2023/12/21 02:40:16;;;;;;;;;;;19.50;67.60;;;;;;7317156;19;9627;-65
2023/12/21 02:42:45;;;;;;;;;;;19.40;67.60;;;;;;7316844;19;9718;-65
2023/12/21 02:45:15;;;;;;;;;;;19.40;67.70;;;;;;7319386;19;9219;-65
2023/12/21 02:47:44;;;;;;;;;;;19.40;67.70;;;;;;7317882;19;9498;-65
2023/12/21 02:50:14;;;;;;;;;;;19.30;67.70;;;;;;7318336;19;10645;-65
2023/12/21 02:52:43;;;;;;;;;;;19.30;68.30;;;;;;7317021;19;9438;-65
2023/12/21 02:55:12;;;;;;;;;;;19.30;67.80;;;;;;7315993;19;9457;-64
2023/12/21 02:57:44;;;;;;;;;;;19.30;67.80;;;;;;7318062;19;9724;-64
2023/12/21 03:00:14;;;;;;;;;;;19.30;67.90;;;;;;7316087;19;9293;-65
2023/12/21 03:02:43;;;;;;;;;;;19.30;68.00;;;;;;7318801;19;9184;-64
2023/12/21 03:05:12;;;;;;;;;;;19.20;67.90;;;;;;7317280;19;9578;-65
2023/12/21 03:08:01;;;;;;;;;;;19.30;68.00;;;;;;7315668;19;9624;-65
2023/12/21 03:10:30;;;;;;;;;;;19.30;67.90;;;;;;7315181;19;9242;-65
2023/12/21 03:13:02;;;;;;;;;;;19.30;67.80;;;;;;7319285;19;9257;-65
2023/12/21 03:15:31;;;;;;;;;;;19.30;67.70;;;;;;7318399;19;9220;-65
2023/12/21 03:18:01;;;;;;;;;;;19.40;67.70;;;;;;7319542;19;9481;-64
2023/12/21 03:20:30;;;;;;;;;;;19.40;67.60;;;;;;7316040;19;9545;-65
2023/12/21 03:23:01;;;;;;;;;;;19.50;67.50;;;;;;7317650;19;10634;-64
2023/12/21 03:25:32;;;;;;;;;;;19.60;67.40;;;;;;7317482;19;9478;-64
2023/12/21 03:28:05;;;;;;;;;;;19.70;67.40;;;;;;7317308;19;9556;-65
2023/12/21 03:30:34;;;;;;;;;;;19.70;67.30;;;;;;7318090;19;9307;-65
2023/12/21 03:33:04;;;;;;;;;;;19.70;67.30;;;;;;7317839;19;9746;-65
2023/12/21 03:35:32;;;;;;;;;;;19.80;67.20;;;;;;7317229;19;9576;-64
2023/12/21 03:38:01;;;;;;;;;;;19.90;67.20;;;;;;7318103;19;9575;-65
2023/12/21 03:40:30;;;;;;;;;;;19.90;67.10;;;;;;7313387;19;9697;-65
2023/12/21 03:42:59;;;;;;;;;;;19.90;67.00;;;;;;7315198;19;10853;-64
2023/12/21 03:45:32;;;;;;;;;;;20.00;66.90;;;;;;7316666;19;9266;-64
2023/12/21 03:48:21;;;;;;;;;;;20.10;66.80;;;;;;7315491;19;8975;-65
2023/12/21 03:50:50;;;;;;;;;;;20.10;66.80;;;;;;7316844;19;9290;-64
2023/12/21 03:53:19;;;;;;;;;;;20.10;66.70;;;;;;7315752;19;9478;-64
2023/12/21 03:55:48;;;;;;;;;;;20.10;66.70;;;;;;7317550;19;9146;-65
2023/12/21 03:58:17;;;;;;;;;;;20.10;66.60;;;;;;7317346;19;13993;-64
2023/12/21 04:00:48;;;;;;;;;;;20.10;66.60;;;;;;7317084;19;9711;-65
2023/12/21 04:03:17;;;;;;;;;;;20.10;66.60;;;;;;7317564;19;9580;-65
2023/12/21 04:05:46;;;;;;;;;;;20.10;66.50;;;;;;7316204;19;9529;-65
2023/12/21 04:08:15;;;;;;;;;;;20.10;66.50;;;;;;7317856;19;9426;-65
2023/12/21 04:10:44;;;;;;;;;;;20.10;66.50;;;;;;7316200;19;9570;-65
2023/12/21 04:13:13;;;;;;;;;;;20.10;66.50;;;;;;7317257;19;9550;-65
2023/12/21 04:15:42;;;;;;;;;;;20.10;66.50;;;;;;7313056;19;9241;-64
2023/12/21 04:18:14;;;;;;;;;;;20.00;66.50;;;;;;7317704;19;9336;-65
2023/12/21 04:20:43;;;;;;;;;;;20.00;66.60;;;;;;7315332;19;10354;-65
2023/12/21 04:23:12;;;;;;;;;;;19.90;66.60;;;;;;7316994;19;9477;-65
2023/12/21 04:25:41;;;;;;;;;;;19.90;66.60;;;;;;7316663;19;9533;-65
2023/12/21 04:28:10;;;;;;;;;;;19.80;66.60;;;;;;7315528;19;9445;-65
2023/12/21 04:30:39;;;;;;;;;;;19.80;66.60;;;;;;7315438;19;9274;-65
2023/12/21 04:33:08;;;;;;;;;;;19.80;67.20;;;;;;7317503;19;9469;-64
2023/12/21 04:35:39;;;;;;;;;;;19.80;66.80;;;;;;7314812;19;9545;-64
2023/12/21 04:38:08;;;;;;;;;;;19.70;66.80;;;;;;7314610;19;10415;-65
2023/12/21 04:40:37;;;;;;;;;;;19.70;66.90;;;;;;7314565;19;9470;-65
2023/12/21 04:43:04;;;;;;;;;;;19.60;66.90;;;;;;7315034;19;10437;-65
2023/12/21 04:45:32;;;;;;;;;;;19.60;67.00;;;;;;7312710;19;9474;-64
2023/12/21 04:48:01;;;;;;;;;;;19.60;67.00;;;;;;7314600;19;9449;-65
2023/12/21 04:50:30;;;;;;;;;;;19.50;67.10;;;;;;7315181;19;9165;-65
2023/12/21 04:53:02;;;;;;;;;;;19.50;67.10;;;;;;7315652;19;10178;-65
2023/12/21 04:55:51;;;;;;;;;;;19.50;67.20;;;;;;7313630;19;9466;-64
2023/12/21 04:58:20;;;;;;;;;;;19.40;67.20;;;;;;7316082;19;9534;-65
2023/12/21 05:00:50;;;;;;;;;;;19.40;67.30;;;;;;7315764;19;9595;-65
2023/12/21 05:03:21;;;;;;;;;;;19.40;67.30;;;;;;7312790;19;9395;-65
2023/12/21 05:05:50;;;;;;;;;;;19.30;67.40;;;;;;7315032;19;9285;-65
2023/12/21 05:08:21;;;;;;;;;;;19.30;67.40;;;;;;7314125;19;10856;-65
2023/12/21 05:10:50;;;;;;;;;;;19.30;67.40;;;;;;7314658;19;9388;-65
2023/12/21 05:13:19;;;;;;;;;;;19.30;67.40;;;;;;7314778;19;9521;-65
2023/12/21 05:15:48;;;;;;;;;;;19.30;67.50;;;;;;7315602;19;9315;-65
2023/12/21 05:18:18;;;;;;;;;;;19.20;67.60;;;;;;7314493;19;9277;-66
2023/12/21 05:20:47;;;;;;;;;;;19.20;67.50;;;;;;7315481;19;9595;-65
2023/12/21 05:23:17;;;;;;;;;;;19.20;67.50;;;;;;7314196;19;10845;-66
2023/12/21 05:25:48;;;;;;;;;;;19.30;67.50;;;;;;7315480;19;9281;-65
2023/12/21 05:28:17;;;;;;;;;;;19.30;67.50;;;;;;7314847;19;9450;-65
2023/12/21 05:30:49;;;;;;;;;;;19.40;67.40;;;;;;7314139;19;9640;-65
2023/12/21 05:33:18;;;;;;;;;;;19.40;67.30;;;;;;7314965;19;10912;-65
2023/12/21 05:35:47;;;;;;;;;;;19.50;67.30;;;;;;7313439;19;9693;-65
2023/12/21 05:38:16;;;;;;;;;;;19.50;67.20;;;;;;7315029;19;9461;-65
2023/12/21 05:40:47;;;;;;;;;;;19.60;67.10;;;;;;7313692;19;9462;-65
2023/12/21 05:43:16;;;;;;;;;;;19.70;67.10;;;;;;7314307;19;9141;-65
2023/12/21 05:45:45;;;;;;;;;;;19.70;66.90;;;;;;7312312;19;9262;-65
2023/12/21 05:48:14;;;;;;;;;;;19.80;66.90;;;;;;7312329;19;9546;-65
2023/12/21 05:50:44;;;;;;;;;;;19.80;66.80;;;;;;7312627;19;11164;-65
2023/12/21 05:53:13;;;;;;;;;;;19.90;66.80;;;;;;7316234;19;9296;-64
2023/12/21 05:55:41;;;;;;;;;;;19.90;66.60;;;;;;7323563;19;9325;-65
2023/12/21 05:58:13;;;;;;;;;;;20.00;66.60;;;;;;7321252;19;9679;-65
2023/12/21 06:00:42;;;;;;;;;;;20.10;66.60;;;;;;7321178;19;9325;-65
2023/12/21 06:03:11;;;;;;;;;;;20.10;67.10;;;;;;7319605;19;9187;-65
2023/12/21 06:05:40;;;;;;;;;;;20.10;66.50;;;;;;7318992;19;9228;-64
2023/12/21 06:08:09;;;;;;;;;;;20.10;66.50;;;;;;7319482;19;9616;-64
2023/12/21 06:10:38;;;;;;;;;;;20.10;66.40;;;;;;7320183;19;10881;-65
2023/12/21 06:13:07;;;;;;;;;;;20.10;66.40;;;;;;7319488;19;9218;-65
2023/12/21 06:15:39;;;;;;;;;;;20.10;66.30;;;;;;7321271;19;9246;-65
2023/12/21 06:18:09;;;;;;;;;;;20.10;66.30;;;;;;7320792;19;9166;-65
2023/12/21 06:20:39;;;;;;;;;;;20.10;66.30;;;;;;7320310;19;9473;-65
2023/12/21 06:23:08;;;;;;;;;;;20.10;66.30;;;;;;7321865;19;9234;-65
2023/12/21 06:25:36;;;;;;;;;;;20.00;66.20;;;;;;7317432;19;9504;-64
2023/12/21 06:28:06;;;;;;;;;;;20.10;66.30;;;;;;7321661;19;9343;-64
2023/12/21 06:30:37;;;;;;;;;;;20.00;66.30;;;;;;7318589;19;9442;-64
2023/12/21 06:33:06;;;;;;;;;;;20.00;66.30;;;;;;7309685;19;9744;-65
2023/12/21 06:35:36;;;;;;;;;;;20.00;66.30;;;;;;7318823;19;9357;-64
2023/12/21 06:38:06;;;;;;;;;;;19.90;66.30;;;;;;7320172;19;9619;-64
2023/12/21 06:40:35;;;;;;;;;;;19.80;66.30;;;;;;7319087;19;9547;-64
2023/12/21 06:43:04;;;;;;;;;;;19.80;66.30;;;;;;7319010;19;9482;-64
2023/12/21 06:45:33;;;;;;;;;;;19.80;66.40;;;;;;7321152;19;9257;-65
2023/12/21 06:48:05;;;;;;;;;;;19.80;66.50;;;;;;7318980;19;10143;-64
2023/12/21 06:50:34;;;;;;;;;;;19.70;66.50;;;;;;7321232;19;9286;-64
2023/12/21 06:53:03;;;;;;;;;;;19.70;66.60;;;;;;7318910;19;9174;-65
2023/12/21 06:55:32;;;;;;;;;;;19.60;66.60;;;;;;7321077;19;9662;-65
2023/12/21 06:58:01;;;;;;;;;;;19.60;66.70;;;;;;7312530;19;9361;-64
2023/12/21 07:00:30;;;;;;;;;;;19.60;66.80;;;;;;7317259;19;9583;-65
2023/12/21 07:03:00;;;;;;;;;;;19.50;66.80;;;;;;7314581;19;9733;-65
2023/12/21 07:05:31;;;;;;;;;;;19.50;66.90;;;;;;7317634;19;9646;-65
2023/12/21 07:08:22;;;;;;;;;;;19.50;67.00;;;;;;7317690;19;10151;-65
2023/12/21 07:10:53;;;;;;;;;;;19.40;66.90;;;;;;7318639;19;9160;-65
2023/12/21 07:13:22;;;;;;;;;;;19.40;67.00;;;;;;7319717;19;9548;-65
2023/12/21 07:15:51;;;;;;;;;;;19.40;67.10;;;;;;7315805;19;9457;-65
2023/12/21 07:18:20;;;;;;;;;;;19.40;67.40;;;;;;7320470;19;9469;-65
2023/12/21 07:20:52;;;;;;;;;;;19.30;67.40;;;;;;7318040;19;9467;-65
2023/12/21 07:23:21;;;;;;;;;;;19.30;67.50;;;;;;7319619;19;10503;-65
2023/12/21 07:25:50;;;;;;;;;;;19.30;67.60;;;;;;7315643;19;9626;-65
2023/12/21 07:28:19;;;;;;;;;;;19.30;67.70;;;;;;7317735;19;9534;-65
2023/12/21 07:30:48;;;;;;;;;;;19.20;67.60;;;;;;7316635;19;9302;-65
2023/12/21 07:33:17;;;;;;;;;;;19.30;67.70;;;;;;7316348;19;9276;-65
2023/12/21 07:35:46;;;;;;;;;;;19.20;67.60;;;;;;7317581;19;9616;-65
2023/12/21 07:38:17;;;;;;;;;;;19.30;67.60;;;;;;7318629;19;10753;-66
2023/12/21 07:41:06;;;;;;;;;;;19.30;67.50;;;;;;7312975;19;9570;-65
2023/12/21 07:43:37;;;;;;;;;;;19.40;67.50;;;;;;7318223;19;9717;-65
2023/12/21 07:46:07;;;;;;;;;;;19.40;67.40;;;;;;7318352;19;9612;-65
2023/12/21 07:48:36;;;;;;;;;;;19.40;67.30;;;;;;7317409;19;9388;-65
2023/12/21 07:51:05;;;;;;;;;;;19.50;67.20;;;;;;7315221;19;10621;-65
2023/12/21 07:53:36;;;;;;;;;;;19.60;67.20;;;;;;7317001;19;9316;-65
2023/12/21 07:56:06;;;;;;;;;;;19.60;67.00;;;;;;7317118;19;9494;-65
2023/12/21 07:58:35;;;;;;;;;;;19.70;67.00;;;;;;7318512;19;9452;-65
2023/12/21 08:01:05;;;;;;;;;;;19.70;66.90;;;;;;7316624;19;10492;-65
2023/12/21 08:03:34;;;;;;;;;;;19.80;66.90;;;;;;7317749;19;9567;-65
2023/12/21 08:06:03;;;;;;;;;;;19.80;66.80;;;;;;7317143;19;9118;-65
2023/12/21 08:08:32;;;;;;;;;;;19.90;66.70;;;;;;7316879;19;9450;-65
2023/12/21 08:11:04;;;;;;;;;;;20.00;66.60;;;;;;7318538;19;9257;-65
2023/12/21 08:13:33;;;;;;;;;;;20.00;66.50;;;;;;7313243;19;9481;-65
2023/12/21 08:16:04;;;;;;;;;;;20.10;66.50;;;;;;7316877;19;9709;-65
2023/12/21 08:18:33;;;;;;;;;;;20.10;66.50;;;;;;7313802;19;9229;-65
2023/12/21 08:21:03;;;;;;;;;;;20.10;66.40;;;;;;7315372;19;9515;-65
2023/12/21 08:23:32;;;;;;;;;;;20.10;66.30;;;;;;7316040;19;9674;-65
2023/12/21 08:26:05;;;;;;;;;;;20.10;66.30;;;;;;7316130;19;9461;-65
2023/12/21 08:28:34;;;;;;;;;;;20.10;66.90;;;;;;7315958;19;9477;-65
2023/12/21 08:31:03;;;;;;;;;;;20.10;66.20;;;;;;7317925;19;9502;-65
2023/12/21 08:33:30;;;;;;;;;;;20.10;66.20;;;;;;7312725;19;9457;-65
2023/12/21 08:35:59;;;;;;;;;;;20.10;66.20;;;;;;7317803;19;9287;-65
2023/12/21 08:38:28;;;;;;;;;;;20.10;66.20;;;;;;7315977;19;9464;-64
2023/12/21 08:40:57;;;;;;;;;;;20.00;66.20;;;;;;7317135;19;9351;-65
2023/12/21 08:43:49;;;;;;;;;;;20.00;66.20;;;;;;7315286;19;9260;-65
2023/12/21 08:46:19;;;;;;;;;;;19.90;66.20;;;;;;7315270;19;9149;-65
2023/12/21 08:48:48;;;;;;;;;;;19.90;66.20;;;;;;7317535;19;9534;-65
2023/12/21 08:51:17;;;;;;;;;;;19.90;66.30;;;;;;7316395;19;10631;-65
2023/12/21 08:53:46;;;;;;;;;;;19.90;66.30;;;;;;7318100;19;9470;-65
2023/12/21 08:56:15;;;;;;;;;;;19.80;66.40;;;;;;7317717;19;9469;-65
2023/12/21 08:58:44;;;;;;;;;;;19.80;66.40;;;;;;7318030;19;9199;-65
2023/12/21 09:01:15;;;;;;;;;;;19.80;66.50;;;;;;7317088;19;9595;-66
2023/12/21 09:03:44;;;;;;;;;;;19.70;66.50;;;;;;7316161;19;9191;-65
2023/12/21 09:06:13;;;;;;;;;;;19.70;66.60;;;;;;7316497;19;9484;-65
2023/12/21 09:08:42;;;;;;;;;;;19.60;66.60;;;;;;7317171;19;9129;-65
2023/12/21 09:11:12;;;;;;;;;;;19.60;66.70;;;;;;7314909;19;9491;-65
2023/12/21 09:13:41;;;;;;;;;;;19.60;66.70;;;;;;7317633;19;10376;-65
2023/12/21 09:16:32;;;;;;;;;;;19.50;66.80;;;;;;7313581;19;10231;-65
2023/12/21 09:19:03;;;;;;;;;;;19.50;66.80;;;;;;7314515;19;9167;-65
2023/12/21 09:21:53;;;;;;;;;;;19.50;66.90;;;;;;7314178;19;10727;-65
2023/12/21 09:24:22;;;;;;;;;;;19.40;66.90;;;;;;7315513;19;9371;-65
2023/12/21 09:26:51;;;;;;;;;;;19.40;67.00;;;;;;7314802;19;9404;-66
2023/12/21 09:29:19;;;;;;;;;;;19.40;67.00;;;;;;7315422;19;9478;-65
2023/12/21 09:31:51;;;;;;;;;;;19.40;67.10;;;;;;7315058;19;9452;-66
2023/12/21 09:34:20;;;;;;;;;;;19.30;67.10;;;;;;7315369;19;9464;-65
2023/12/21 09:36:49;;;;;;;;;;;19.30;67.10;;;;;;7312345;19;9527;-65
2023/12/21 09:39:18;;;;;;;;;;;19.30;67.20;;;;;;7314142;19;9513;-65
2023/12/21 09:41:49;;;;;;;;;;;19.30;67.20;;;;;;7311228;19;9463;-65
2023/12/21 09:44:20;;;;;;;;;;;19.30;67.30;;;;;;7316998;19;9481;-65
2023/12/21 09:46:52;;;;;;;;;;;19.20;67.30;;;;;;7314626;19;10521;-65
2023/12/21 09:49:22;;;;;;;;;;;19.30;67.30;;;;;;7315535;19;9532;-65
2023/12/21 09:52:12;;;;;;;;;;;19.30;67.30;;;;;;7311457;19;9506;-65
2023/12/21 09:54:43;;;;;;;;;;;19.30;67.30;;;;;;7314348;19;9605;-65
2023/12/21 09:57:14;;;;;;;;;;;19.30;67.20;;;;;;7310502;19;9811;-65
2023/12/21 09:59:43;;;;;;;;;;;19.40;67.20;;;;;;7312052;19;9641;-65
2023/12/21 10:02:15;;;;;;;;;;;19.50;67.10;;;;;;7309448;19;9554;-65
2023/12/21 10:04:46;;;;;;;;;;;19.50;67.10;;;;;;7313851;19;9464;-65
2023/12/21 10:07:17;;;;;;;;;;;19.60;67.60;;;;;;7313525;19;9461;-65
2023/12/21 10:09:46;;;;;;;;;;;19.60;67.00;;;;;;7309623;19;9187;-65
2023/12/21 10:12:15;;;;;;;;;;;19.70;66.90;;;;;;7313583;19;9340;-65
2023/12/21 10:14:44;;;;;;;;;;;19.80;66.90;;;;;;7313566;19;9446;-65
2023/12/21 10:17:16;;;;;;;;;;;19.80;66.80;;;;;;7313522;19;9465;-65
2023/12/21 10:19:47;;;;;;;;;;;19.80;66.70;;;;;;7311374;19;9477;-65
2023/12/21 10:22:18;;;;;;;;;;;19.90;66.60;;;;;;7313272;19;10655;-65
2023/12/21 10:24:50;;;;;;;;;;;20.00;66.60;;;;;;7313414;19;9272;-65
2023/12/21 10:27:21;;;;;;;;;;;20.00;66.60;;;;;;7313009;19;10607;-65
2023/12/21 10:29:58;;;;;;;;;;;20.10;66.50;;;;;;7308622;19;9654;-65
2023/12/21 10:32:31;;;;;;;;;;;20.10;66.40;;;;;;7313412;19;9472;-65
2023/12/21 10:35:02;;;;;;;;;;;20.10;66.40;;;;;;7312397;19;10621;-65
2023/12/21 10:37:51;;;;;;;;;;;20.10;66.40;;;;;;7308525;19;10430;-65
2023/12/21 10:40:21;;;;;;;;;;;20.10;66.40;;;;;;7320681;19;9019;-64
2023/12/21 10:42:51;;;;;;;;;;;20.10;66.40;;;;;;7319412;19;9239;-65
2023/12/21 10:45:21;;;;;;;;;;;20.10;66.40;;;;;;7317919;19;10616;-65
2023/12/21 10:48:16;;;;;;;;;;;20.10;66.40;;;;;;7316469;19;9367;-65
2023/12/21 10:50:47;;;;;;;;;;;20.10;66.30;;;;;;7320464;19;9743;-65
2023/12/21 10:53:17;;;;;;;;;;;20.10;66.30;;;;;;7317214;19;9699;-65
2023/12/21 10:55:48;;;;;;;;;;;20.10;66.40;;;;;;7320099;19;9623;-65
2023/12/21 10:58:38;;;;;;;;;;;20.10;66.40;;;;;;7315042;19;9522;-65
2023/12/21 11:01:09;;;;;;;;;;;20.00;66.40;;;;;;7318110;19;9508;-65
2023/12/21 11:03:44;;;;;;;;;;;20.00;66.40;;;;;;7318792;19;9732;-65
2023/12/21 11:06:14;;;;;;;;;;;20.00;66.50;;;;;;7317593;19;9530;-65
2023/12/21 11:08:44;;;;;;;;;;;19.90;66.50;;;;;;7317068;19;9477;-65
2023/12/21 11:11:15;;;;;;;;;;;19.90;66.60;;;;;;7318717;19;9234;-65
2023/12/21 11:13:44;;;;;;;;;;;19.90;66.60;;;;;;7314294;19;9127;-65
2023/12/21 11:16:17;;;;;;;;;;;19.90;66.70;;;;;;7319071;19;9477;-65
2023/12/21 11:18:50;;;;;;;;;;;19.80;66.70;;;;;;7316070;19;9689;-65
2023/12/21 11:21:22;;;;;;;;;;;19.80;66.70;;;;;;7316131;19;11129;-65
2023/12/21 11:23:52;;;;;;;;;;;19.80;66.80;;;;;;7314867;19;9588;-65
2023/12/21 11:26:27;;;;;;;;;;;19.70;66.80;;;;;;7315989;19;9506;-65
2023/12/21 11:29:17;;;;;;;;;;;19.70;66.90;;;;;;7317390;19;11304;-65
2023/12/21 11:31:46;;;;;;;;;;;19.70;67.00;;;;;;7318605;19;9473;-65
2023/12/21 11:34:19;;;;;;;;;;;19.60;67.00;;;;;;7318402;19;9168;-65
2023/12/21 11:36:48;;;;;;;;;;;19.60;67.00;;;;;;7314862;19;9285;-65
2023/12/21 11:39:21;;;;;;;;;;;19.60;67.10;;;;;;7318894;19;9477;-65
2023/12/21 11:41:52;;;;;;;;;;;19.50;67.10;;;;;;7314716;19;10325;-65
2023/12/21 11:44:21;;;;;;;;;;;19.50;67.20;;;;;;7315777;19;9529;-65
2023/12/21 11:46:50;;;;;;;;;;;19.50;67.30;;;;;;7313406;19;9473;-65
2023/12/21 11:49:29;;;;;;;;;;;19.50;67.30;;;;;;7313714;19;9589;-65
2023/12/21 11:51:59;;;;;;;;;;;19.40;67.30;;;;;;7317614;19;9295;-65
2023/12/21 11:54:28;;;;;;;;;;;19.40;67.40;;;;;;7319942;19;10244;-65
2023/12/21 11:57:13;;;;;;;;;;;19.40;67.40;;;;;;7311653;19;9202;-65
2023/12/21 11:59:42;;;;;;;;;;;19.40;67.40;;;;;;7304174;19;9636;-64
2023/12/21 12:02:32;;;;;;;;;;;19.40;67.50;;;;;;7308825;19;9572;-64
2023/12/21 12:05:05;;;;;;;;;;;19.30;68.10;;;;;;7314159;19;9297;-64
2023/12/21 12:07:38;;;;;;;;;;;19.30;67.50;;;;;;7315480;19;9204;-64
2023/12/21 12:10:08;;;;;;;;;;;19.30;67.50;;;;;;7316794;19;10386;-65
2023/12/21 12:12:36;;;;;;;;;;;19.30;67.60;;;;;;7317451;19;9265;-65
2023/12/21 12:15:06;;;;;;;;;;;19.30;67.60;;;;;;7317501;19;9451;-64
2023/12/21 12:17:41;;;;;;;;;;;19.30;67.60;;;;;;7317560;19;9840;-65
2023/12/21 12:20:14;;;;;;;;;;;19.30;67.60;;;;;;7317426;19;9485;-65
2023/12/21 12:22:43;;;;;;;;;;;19.30;67.50;;;;;;7317575;19;9362;-65
2023/12/21 12:25:18;;;;;;;;;;;19.30;67.40;;;;;;7318733;19;9253;-65
2023/12/21 12:27:48;;;;;;;;;;;19.40;67.40;;;;;;7316046;19;9169;-64
2023/12/21 12:30:18;;;;;;;;;;;19.50;67.30;;;;;;7317124;19;9620;-65
2023/12/21 12:32:49;;;;;;;;;;;19.50;67.20;;;;;;7317345;19;9465;-66
2023/12/21 12:35:22;;;;;;;;;;;19.60;67.10;;;;;;7318023;19;9225;-66
2023/12/21 12:37:51;;;;;;;;;;;19.60;67.00;;;;;;7317042;19;9498;-66
2023/12/21 12:40:20;;;;;;;;;;;19.70;67.00;;;;;;7313338;19;9494;-67
2023/12/21 12:42:49;;;;;;;;;;;19.80;67.00;;;;;;7315257;19;11124;-67
2023/12/21 12:45:19;;;;;;;;;;;19.80;66.90;;;;;;7315962;19;9526;-67
2023/12/21 12:47:48;;;;;;;;;;;19.90;66.90;;;;;;7316533;19;9457;-68
2023/12/21 12:50:23;;;;;;;;;;;19.90;66.80;;;;;;7312605;19;9242;-69
2023/12/21 12:52:52;;;;;;;;;;;20.00;66.70;;;;;;7311425;19;9524;-68
2023/12/21 12:55:23;;;;;;;;;;;20.00;66.60;;;;;;7315337;19;9454;-68
2023/12/21 12:57:55;;;;;;;;;;;20.10;66.60;;;;;;7316539;19;9533;-68
2023/12/21 13:00:24;;;;;;;;;;;20.10;66.60;;;;;;7315383;19;9470;-67
2023/12/21 13:02:53;;;;;;;;;;;20.10;66.60;;;;;;7315020;19;10378;-67
2023/12/21 13:05:26;;;;;;;;;;;20.10;66.50;;;;;;7311109;19;9211;-68
2023/12/21 13:07:56;;;;;;;;;;;20.10;66.40;;;;;;7315249;19;9168;-65
2023/12/21 13:10:26;;;;;;;;;;;20.10;66.50;;;;;;7311035;19;9361;-67
2023/12/21 13:12:55;;;;;;;;;;;20.10;66.40;;;;;;7314307;19;10001;-65
2023/12/21 13:15:24;;;;;;;;;;;20.10;66.40;;;;;;7312944;19;9696;-65
2023/12/21 13:17:54;;;;;;;;;;;20.10;66.40;;;;;;7312651;19;10112;-64
2023/12/21 13:20:25;;;;;;;;;;;20.10;66.40;;;;;;7311628;19;9916;-65
2023/12/21 13:22:55;;;;;;;;;;;20.10;66.50;;;;;;7316422;19;9741;-65
2023/12/21 13:25:24;;;;;;;;;;;20.10;66.50;;;;;;7313413;19;9447;-65
2023/12/21 13:27:53;;;;;;;;;;;20.00;66.50;;;;;;7315590;19;9356;-65
2023/12/21 13:30:23;;;;;;;;;;;20.00;66.60;;;;;;7311658;19;9736;-65
2023/12/21 13:32:52;;;;;;;;;;;20.00;66.50;;;;;;7315079;19;10143;-65
2023/12/21 13:35:21;;;;;;;;;;;19.90;66.60;;;;;;7311031;19;9214;-65
2023/12/21 13:37:52;;;;;;;;;;;19.90;67.20;;;;;;7314754;19;9449;-65
2023/12/21 13:40:22;;;;;;;;;;;19.80;66.60;;;;;;7314019;19;9391;-65
2023/12/21 13:42:51;;;;;;;;;;;19.80;66.60;;;;;;7315333;19;9645;-65
2023/12/21 13:45:20;;;;;;;;;;;19.80;66.70;;;;;;7312678;19;9454;-65
2023/12/21 13:47:49;;;;;;;;;;;19.80;66.70;;;;;;7314531;19;9458;-65
2023/12/21 13:50:18;;;;;;;;;;;19.70;66.70;;;;;;7310776;19;10467;-65
2023/12/21 13:52:47;;;;;;;;;;;19.70;66.80;;;;;;7312938;19;9601;-63
2023/12/21 13:55:21;;;;;;;;;;;19.70;66.70;;;;;;7313203;19;9284;-63
2023/12/21 13:57:50;;;;;;;;;;;19.60;66.80;;;;;;7312650;19;10369;-64
2023/12/21 14:00:22;;;;;;;;;;;19.60;66.80;;;;;;7315059;19;9389;-63
2023/12/21 14:02:51;;;;;;;;;;;19.60;66.80;;;;;;7315236;19;9048;-62
2023/12/21 14:05:20;;;;;;;;;;;19.60;66.80;;;;;;7311418;19;9186;-62
2023/12/21 14:07:51;;;;;;;;;;;19.60;66.80;;;;;;7309642;19;9348;-62
2023/12/21 14:10:22;;;;;;;;;;;19.60;66.80;;;;;;7312626;19;10635;-62
2023/12/21 14:12:51;;;;;;;;;;;19.60;66.80;;;;;;7315199;19;9646;-62
2023/12/21 14:15:20;;;;;;;;;;;19.60;66.80;;;;;;7320875;19;9500;-62
2023/12/21 14:17:49;;;;;;;;;;;19.60;67.30;;;;;;7318575;19;9245;-62
2023/12/21 14:20:22;;;;;;;;;;;19.70;66.60;;;;;;7316804;19;9465;-63
2023/12/21 14:22:52;;;;;;;;;;;19.70;66.50;;;;;;7320483;19;9700;-64
2023/12/21 14:25:25;;;;;;;;;;;19.80;66.60;;;;;;7320806;19;9666;-65
2023/12/21 14:27:55;;;;;;;;;;;19.80;66.50;;;;;;7319077;19;9485;-65
2023/12/21 14:30:24;;;;;;;;;;;19.80;66.50;;;;;;7315381;19;10164;-64
2023/12/21 14:32:53;;;;;;;;;;;19.90;66.50;;;;;;7319636;19;9557;-64
2023/12/21 14:35:22;;;;;;;;;;;20.00;66.70;;;;;;7316657;19;9736;-65
2023/12/21 14:37:51;;;;;;;;;;;20.00;66.70;;;;;;7319309;19;11334;-65
2023/12/21 14:40:20;;;;;;;;;;;20.10;66.80;;;;;;7317662;19;9792;-64
2023/12/21 14:42:53;;;;;;;;;;;20.10;66.90;;;;;;7319863;19;9552;-64
2023/12/21 14:45:22;;;;;;;;;;;20.20;67.10;;;;;;7316894;19;9457;-62
2023/12/21 14:47:50;;;;;;;;;;;20.20;66.90;;;;;;7320946;19;9487;-61
2023/12/21 14:50:20;;;;;;;;;;;20.30;66.90;;;;;;7315902;19;9553;-62